sensor_id;sensor_type;location;lat;lon;timestamp;P1;durP1;ratioP1;P2;durP2;ratioP2
32393;SDS011;18853;45.426;9.206;2023-06-05T00:01:46;5.10;;;3.40;;
32393;SDS011;18853;45.426;9.206;2023-06-05T00:04:12;4.05;;;3.17;;
32393;SDS011;18853;45.426;9.206;2023-06-05T00:06:37;4.45;;;3.03;;
32393;SDS011;18853;45.426;9.206;2023-06-05T00:09:06;5.93;;;3.47;;
32393;SDS011;18853;45.426;9.206;2023-06-05T00:11:32;5.35;;;3.47;;
32393;SDS011;18853;45.426;9.206;2023-06-05T00:13:58;4.35;;;3.28;;
32393;SDS011;18853;45.426;9.206;2023-06-05T00:16:25;4.55;;;2.88;;
32393;SDS011;18853;45.426;9.206;2023-06-05T00:18:51;3.67;;;2.85;;
32393;SDS011;18853;45.426;9.206;2023-06-05T00:21:17;4.57;;;2.88;;
32393;SDS011;18853;45.426;9.206;2023-06-05T00:23:44;6.15;;;2.78;;
32393;SDS011;18853;45.426;9.206;2023-06-05T00:26:10;5.15;;;2.60;;
32393;SDS011;18853;45.426;9.206;2023-06-05T00:28:36;6.03;;;2.88;;
32393;SDS011;18853;45.426;9.206;2023-06-05T00:31:03;4.82;;;2.60;;
32393;SDS011;18853;45.426;9.206;2023-06-05T00:33:29;4.38;;;2.90;;
32393;SDS011;18853;45.426;9.206;2023-06-05T00:35:56;3.53;;;2.90;;
32393;SDS011;18853;45.426;9.206;2023-06-05T00:38:22;3.90;;;2.80;;
32393;SDS011;18853;45.426;9.206;2023-06-05T00:40:47;4.10;;;2.72;;
32393;SDS011;18853;45.426;9.206;2023-06-05T00:43:13;5.07;;;2.85;;
32393;SDS011;18853;45.426;9.206;2023-06-05T00:45:39;6.65;;;4.28;;
32393;SDS011;18853;45.426;9.206;2023-06-05T00:48:05;5.13;;;3.83;;
32393;SDS011;18853;45.426;9.206;2023-06-05T00:50:32;4.63;;;3.13;;
32393;SDS011;18853;45.426;9.206;2023-06-05T00:53:00;7.57;;;5.90;;
32393;SDS011;18853;45.426;9.206;2023-06-05T00:55:26;5.65;;;3.35;;
32393;SDS011;18853;45.426;9.206;2023-06-05T00:57:52;7.03;;;3.97;;
32393;SDS011;18853;45.426;9.206;2023-06-05T01:00:19;6.13;;;4.32;;
32393;SDS011;18853;45.426;9.206;2023-06-05T01:02:45;4.57;;;3.70;;
32393;SDS011;18853;45.426;9.206;2023-06-05T01:05:11;5.07;;;3.33;;
32393;SDS011;18853;45.426;9.206;2023-06-05T01:07:38;5.38;;;3.60;;
32393;SDS011;18853;45.426;9.206;2023-06-05T01:10:05;5.40;;;4.03;;
32393;SDS011;18853;45.426;9.206;2023-06-05T01:12:38;6.32;;;4.40;;
32393;SDS011;18853;45.426;9.206;2023-06-05T01:15:24;5.07;;;4.10;;
32393;SDS011;18853;45.426;9.206;2023-06-05T01:17:56;6.70;;;4.95;;
32393;SDS011;18853;45.426;9.206;2023-06-05T01:20:34;7.70;;;4.53;;
32393;SDS011;18853;45.426;9.206;2023-06-05T01:23:04;7.40;;;5.55;;
32393;SDS011;18853;45.426;9.206;2023-06-05T01:25:30;7.10;;;4.40;;
32393;SDS011;18853;45.426;9.206;2023-06-05T01:31:01;6.93;;;4.93;;
32393;SDS011;18853;45.426;9.206;2023-06-05T01:33:32;8.07;;;6.05;;
32393;SDS011;18853;45.426;9.206;2023-06-05T01:36:07;7.78;;;5.50;;
32393;SDS011;18853;45.426;9.206;2023-06-05T01:38:38;7.60;;;5.13;;
32393;SDS011;18853;45.426;9.206;2023-06-05T01:41:05;6.70;;;5.55;;
32393;SDS011;18853;45.426;9.206;2023-06-05T01:43:32;7.00;;;4.90;;
32393;SDS011;18853;45.426;9.206;2023-06-05T01:45:58;7.20;;;5.05;;
32393;SDS011;18853;45.426;9.206;2023-06-05T01:48:25;7.82;;;5.10;;
32393;SDS011;18853;45.426;9.206;2023-06-05T01:50:56;7.22;;;4.50;;
32393;SDS011;18853;45.426;9.206;2023-06-05T01:53:23;7.57;;;4.97;;
32393;SDS011;18853;45.426;9.206;2023-06-05T01:55:49;6.88;;;5.07;;
32393;SDS011;18853;45.426;9.206;2023-06-05T01:58:19;7.32;;;5.78;;
32393;SDS011;18853;45.426;9.206;2023-06-05T02:00:46;6.28;;;4.63;;
32393;SDS011;18853;45.426;9.206;2023-06-05T02:03:12;10.27;;;6.00;;
32393;SDS011;18853;45.426;9.206;2023-06-05T02:05:41;7.22;;;5.63;;
32393;SDS011;18853;45.426;9.206;2023-06-05T02:08:07;9.07;;;7.30;;
32393;SDS011;18853;45.426;9.206;2023-06-05T02:10:35;9.68;;;6.88;;
32393;SDS011;18853;45.426;9.206;2023-06-05T02:13:02;9.85;;;7.38;;
32393;SDS011;18853;45.426;9.206;2023-06-05T02:15:28;8.88;;;6.25;;
32393;SDS011;18853;45.426;9.206;2023-06-05T02:17:57;10.45;;;7.82;;
32393;SDS011;18853;45.426;9.206;2023-06-05T02:20:26;12.32;;;9.27;;
32393;SDS011;18853;45.426;9.206;2023-06-05T02:22:52;10.70;;;9.32;;
32393;SDS011;18853;45.426;9.206;2023-06-05T02:25:20;11.75;;;9.18;;
32393;SDS011;18853;45.426;9.206;2023-06-05T02:27:46;11.32;;;9.25;;
32393;SDS011;18853;45.426;9.206;2023-06-05T02:30:12;11.77;;;9.45;;
32393;SDS011;18853;45.426;9.206;2023-06-05T02:32:38;15.30;;;11.77;;
32393;SDS011;18853;45.426;9.206;2023-06-05T02:35:09;12.90;;;9.77;;
32393;SDS011;18853;45.426;9.206;2023-06-05T02:37:35;10.45;;;8.55;;
32393;SDS011;18853;45.426;9.206;2023-06-05T02:40:08;13.45;;;9.40;;
32393;SDS011;18853;45.426;9.206;2023-06-05T02:42:35;13.00;;;9.13;;
32393;SDS011;18853;45.426;9.206;2023-06-05T02:45:01;12.32;;;9.02;;
32393;SDS011;18853;45.426;9.206;2023-06-05T02:47:29;11.32;;;9.23;;
32393;SDS011;18853;45.426;9.206;2023-06-05T02:49:55;10.52;;;8.45;;
32393;SDS011;18853;45.426;9.206;2023-06-05T02:52:21;11.73;;;9.52;;
32393;SDS011;18853;45.426;9.206;2023-06-05T02:54:47;12.88;;;9.07;;
32393;SDS011;18853;45.426;9.206;2023-06-05T02:57:13;12.18;;;9.48;;
32393;SDS011;18853;45.426;9.206;2023-06-05T02:59:40;11.07;;;9.10;;
32393;SDS011;18853;45.426;9.206;2023-06-05T03:02:06;9.40;;;8.20;;
32393;SDS011;18853;45.426;9.206;2023-06-05T03:04:32;11.23;;;8.07;;
32393;SDS011;18853;45.426;9.206;2023-06-05T03:06:58;9.55;;;7.45;;
32393;SDS011;18853;45.426;9.206;2023-06-05T03:09:31;10.05;;;7.32;;
32393;SDS011;18853;45.426;9.206;2023-06-05T03:11:57;8.13;;;6.57;;
32393;SDS011;18853;45.426;9.206;2023-06-05T03:14:23;8.77;;;6.78;;
32393;SDS011;18853;45.426;9.206;2023-06-05T03:16:51;10.25;;;6.63;;
32393;SDS011;18853;45.426;9.206;2023-06-05T03:19:18;9.82;;;6.63;;
32393;SDS011;18853;45.426;9.206;2023-06-05T03:21:45;9.10;;;6.90;;
32393;SDS011;18853;45.426;9.206;2023-06-05T03:24:13;9.35;;;6.55;;
32393;SDS011;18853;45.426;9.206;2023-06-05T03:26:42;9.48;;;7.00;;
32393;SDS011;18853;45.426;9.206;2023-06-05T03:29:09;9.55;;;6.60;;
32393;SDS011;18853;45.426;9.206;2023-06-05T03:31:36;10.57;;;8.10;;
32393;SDS011;18853;45.426;9.206;2023-06-05T03:34:01;10.40;;;7.32;;
32393;SDS011;18853;45.426;9.206;2023-06-05T03:36:29;8.75;;;6.85;;
32393;SDS011;18853;45.426;9.206;2023-06-05T03:39:03;11.20;;;7.72;;
32393;SDS011;18853;45.426;9.206;2023-06-05T03:41:28;10.40;;;8.13;;
32393;SDS011;18853;45.426;9.206;2023-06-05T03:43:54;11.23;;;7.75;;
32393;SDS011;18853;45.426;9.206;2023-06-05T03:46:22;9.20;;;8.10;;
32393;SDS011;18853;45.426;9.206;2023-06-05T03:48:48;9.85;;;6.78;;
32393;SDS011;18853;45.426;9.206;2023-06-05T03:51:15;11.10;;;9.57;;
32393;SDS011;18853;45.426;9.206;2023-06-05T03:53:47;9.82;;;6.75;;
32393;SDS011;18853;45.426;9.206;2023-06-05T03:58:46;9.85;;;6.78;;
32393;SDS011;18853;45.426;9.206;2023-06-05T04:01:13;8.88;;;6.75;;
32393;SDS011;18853;45.426;9.206;2023-06-05T04:03:39;11.63;;;8.55;;
32393;SDS011;18853;45.426;9.206;2023-06-05T04:06:05;10.27;;;7.50;;
32393;SDS011;18853;45.426;9.206;2023-06-05T04:08:31;11.95;;;7.53;;
32393;SDS011;18853;45.426;9.206;2023-06-05T04:10:57;11.48;;;7.97;;
32393;SDS011;18853;45.426;9.206;2023-06-05T04:13:23;9.80;;;7.43;;
32393;SDS011;18853;45.426;9.206;2023-06-05T04:15:49;9.88;;;7.28;;
32393;SDS011;18853;45.426;9.206;2023-06-05T04:18:15;10.15;;;7.22;;
32393;SDS011;18853;45.426;9.206;2023-06-05T04:20:41;11.27;;;7.57;;
32393;SDS011;18853;45.426;9.206;2023-06-05T04:23:07;9.70;;;7.75;;
32393;SDS011;18853;45.426;9.206;2023-06-05T04:25:32;10.13;;;7.50;;
32393;SDS011;18853;45.426;9.206;2023-06-05T04:27:58;10.38;;;7.00;;
32393;SDS011;18853;45.426;9.206;2023-06-05T04:30:24;14.27;;;11.55;;
32393;SDS011;18853;45.426;9.206;2023-06-05T04:32:50;8.82;;;6.57;;
32393;SDS011;18853;45.426;9.206;2023-06-05T04:35:22;9.00;;;6.90;;
32393;SDS011;18853;45.426;9.206;2023-06-05T04:37:48;12.60;;;11.10;;
32393;SDS011;18853;45.426;9.206;2023-06-05T04:40:14;9.52;;;7.50;;
32393;SDS011;18853;45.426;9.206;2023-06-05T04:42:41;14.38;;;7.22;;
32393;SDS011;18853;45.426;9.206;2023-06-05T04:45:07;11.15;;;7.22;;
32393;SDS011;18853;45.426;9.206;2023-06-05T04:47:33;11.52;;;8.88;;
32393;SDS011;18853;45.426;9.206;2023-06-05T04:49:59;10.35;;;7.32;;
32393;SDS011;18853;45.426;9.206;2023-06-05T04:52:32;15.80;;;11.35;;
32393;SDS011;18853;45.426;9.206;2023-06-05T04:55:00;15.48;;;13.45;;
32393;SDS011;18853;45.426;9.206;2023-06-05T04:57:29;12.43;;;8.30;;
32393;SDS011;18853;45.426;9.206;2023-06-05T04:59:55;10.50;;;7.13;;
32393;SDS011;18853;45.426;9.206;2023-06-05T05:02:25;10.73;;;7.40;;
32393;SDS011;18853;45.426;9.206;2023-06-05T05:04:51;14.95;;;7.80;;
32393;SDS011;18853;45.426;9.206;2023-06-05T05:07:17;10.20;;;6.90;;
32393;SDS011;18853;45.426;9.206;2023-06-05T05:09:43;11.02;;;8.10;;
32393;SDS011;18853;45.426;9.206;2023-06-05T05:12:09;10.50;;;7.53;;
32393;SDS011;18853;45.426;9.206;2023-06-05T05:14:35;11.95;;;9.25;;
32393;SDS011;18853;45.426;9.206;2023-06-05T05:17:01;10.68;;;8.05;;
32393;SDS011;18853;45.426;9.206;2023-06-05T05:19:28;10.35;;;6.63;;
32393;SDS011;18853;45.426;9.206;2023-06-05T05:21:54;9.85;;;6.85;;
32393;SDS011;18853;45.426;9.206;2023-06-05T05:24:20;9.07;;;7.03;;
32393;SDS011;18853;45.426;9.206;2023-06-05T05:26:46;16.23;;;8.98;;
32393;SDS011;18853;45.426;9.206;2023-06-05T05:29:11;12.27;;;7.72;;
32393;SDS011;18853;45.426;9.206;2023-06-05T05:31:37;17.55;;;11.02;;
32393;SDS011;18853;45.426;9.206;2023-06-05T05:34:03;13.20;;;7.65;;
32393;SDS011;18853;45.426;9.206;2023-06-05T05:36:29;11.52;;;7.75;;
32393;SDS011;18853;45.426;9.206;2023-06-05T05:38:54;14.73;;;8.30;;
32393;SDS011;18853;45.426;9.206;2023-06-05T05:41:20;11.50;;;7.95;;
32393;SDS011;18853;45.426;9.206;2023-06-05T05:43:47;9.93;;;7.50;;
32393;SDS011;18853;45.426;9.206;2023-06-05T05:46:13;9.73;;;7.63;;
32393;SDS011;18853;45.426;9.206;2023-06-05T05:48:39;13.30;;;8.63;;
32393;SDS011;18853;45.426;9.206;2023-06-05T05:51:05;10.43;;;7.97;;
32393;SDS011;18853;45.426;9.206;2023-06-05T05:53:32;12.13;;;8.13;;
32393;SDS011;18853;45.426;9.206;2023-06-05T05:55:57;15.23;;;11.20;;
32393;SDS011;18853;45.426;9.206;2023-06-05T05:58:23;10.40;;;7.93;;
32393;SDS011;18853;45.426;9.206;2023-06-05T06:00:49;11.15;;;7.65;;
32393;SDS011;18853;45.426;9.206;2023-06-05T06:03:16;12.05;;;7.15;;
32393;SDS011;18853;45.426;9.206;2023-06-05T06:05:42;11.60;;;7.38;;
32393;SDS011;18853;45.426;9.206;2023-06-05T06:08:09;11.75;;;7.10;;
32393;SDS011;18853;45.426;9.206;2023-06-05T06:10:36;9.25;;;6.80;;
32393;SDS011;18853;45.426;9.206;2023-06-05T06:13:02;10.38;;;5.90;;
32393;SDS011;18853;45.426;9.206;2023-06-05T06:15:29;9.57;;;5.90;;
32393;SDS011;18853;45.426;9.206;2023-06-05T06:17:56;11.35;;;6.97;;
32393;SDS011;18853;45.426;9.206;2023-06-05T06:20:22;9.25;;;6.32;;
32393;SDS011;18853;45.426;9.206;2023-06-05T06:22:48;19.42;;;14.32;;
32393;SDS011;18853;45.426;9.206;2023-06-05T06:25:14;37.03;;;28.17;;
32393;SDS011;18853;45.426;9.206;2023-06-05T06:27:41;66.57;;;48.33;;
32393;SDS011;18853;45.426;9.206;2023-06-05T06:30:08;59.05;;;43.22;;
32393;SDS011;18853;45.426;9.206;2023-06-05T06:32:35;51.90;;;38.13;;
32393;SDS011;18853;45.426;9.206;2023-06-05T06:35:01;34.75;;;27.58;;
32393;SDS011;18853;45.426;9.206;2023-06-05T06:37:26;46.58;;;37.08;;
32393;SDS011;18853;45.426;9.206;2023-06-05T06:39:53;56.75;;;41.53;;
32393;SDS011;18853;45.426;9.206;2023-06-05T06:42:19;69.88;;;56.15;;
32393;SDS011;18853;45.426;9.206;2023-06-05T06:44:44;67.90;;;52.42;;
32393;SDS011;18853;45.426;9.206;2023-06-05T06:47:10;56.40;;;44.70;;
32393;SDS011;18853;45.426;9.206;2023-06-05T06:49:36;48.67;;;37.35;;
32393;SDS011;18853;45.426;9.206;2023-06-05T06:52:04;35.83;;;28.50;;
32393;SDS011;18853;45.426;9.206;2023-06-05T06:54:30;30.10;;;24.77;;
32393;SDS011;18853;45.426;9.206;2023-06-05T06:56:56;31.52;;;23.92;;
32393;SDS011;18853;45.426;9.206;2023-06-05T06:59:22;28.30;;;21.80;;
32393;SDS011;18853;45.426;9.206;2023-06-05T07:04:37;21.67;;;16.48;;
32393;SDS011;18853;45.426;9.206;2023-06-05T07:07:03;20.60;;;12.23;;
32393;SDS011;18853;45.426;9.206;2023-06-05T07:09:29;20.13;;;12.93;;
32393;SDS011;18853;45.426;9.206;2023-06-05T07:11:55;14.40;;;11.20;;
32393;SDS011;18853;45.426;9.206;2023-06-05T07:14:21;13.15;;;9.20;;
32393;SDS011;18853;45.426;9.206;2023-06-05T07:16:47;14.23;;;10.02;;
32393;SDS011;18853;45.426;9.206;2023-06-05T07:19:14;13.32;;;9.90;;
32393;SDS011;18853;45.426;9.206;2023-06-05T07:21:41;13.32;;;9.35;;
32393;SDS011;18853;45.426;9.206;2023-06-05T07:24:06;11.20;;;8.05;;
32393;SDS011;18853;45.426;9.206;2023-06-05T07:26:33;11.73;;;8.75;;
32393;SDS011;18853;45.426;9.206;2023-06-05T07:28:59;13.50;;;8.68;;
32393;SDS011;18853;45.426;9.206;2023-06-05T07:31:25;9.20;;;7.80;;
32393;SDS011;18853;45.426;9.206;2023-06-05T07:33:51;9.35;;;7.10;;
32393;SDS011;18853;45.426;9.206;2023-06-05T07:36:17;11.55;;;7.70;;
32393;SDS011;18853;45.426;9.206;2023-06-05T07:38:42;9.43;;;7.03;;
32393;SDS011;18853;45.426;9.206;2023-06-05T07:41:10;10.13;;;6.60;;
32393;SDS011;18853;45.426;9.206;2023-06-05T07:43:37;8.73;;;6.45;;
32393;SDS011;18853;45.426;9.206;2023-06-05T07:46:07;8.43;;;6.18;;
32393;SDS011;18853;45.426;9.206;2023-06-05T07:48:34;12.40;;;8.52;;
32393;SDS011;18853;45.426;9.206;2023-06-05T07:51:00;13.00;;;9.23;;
32393;SDS011;18853;45.426;9.206;2023-06-05T07:53:26;11.05;;;8.70;;
32393;SDS011;18853;45.426;9.206;2023-06-05T07:55:52;13.20;;;9.63;;
32393;SDS011;18853;45.426;9.206;2023-06-05T07:58:19;12.20;;;8.65;;
32393;SDS011;18853;45.426;9.206;2023-06-05T08:00:46;12.13;;;8.82;;
32393;SDS011;18853;45.426;9.206;2023-06-05T08:03:15;7.90;;;5.78;;
32393;SDS011;18853;45.426;9.206;2023-06-05T08:05:51;8.85;;;6.07;;
32393;SDS011;18853;45.426;9.206;2023-06-05T08:08:17;7.63;;;6.18;;
32393;SDS011;18853;45.426;9.206;2023-06-05T08:10:43;10.75;;;7.53;;
32393;SDS011;18853;45.426;9.206;2023-06-05T08:13:09;9.38;;;7.93;;
32393;SDS011;18853;45.426;9.206;2023-06-05T08:15:35;7.03;;;5.63;;
32393;SDS011;18853;45.426;9.206;2023-06-05T08:18:01;7.78;;;6.07;;
32393;SDS011;18853;45.426;9.206;2023-06-05T08:20:27;7.25;;;5.13;;
32393;SDS011;18853;45.426;9.206;2023-06-05T08:22:54;10.48;;;7.88;;
32393;SDS011;18853;45.426;9.206;2023-06-05T08:25:22;9.52;;;6.90;;
32393;SDS011;18853;45.426;9.206;2023-06-05T08:27:48;7.97;;;6.55;;
32393;SDS011;18853;45.426;9.206;2023-06-05T08:30:15;10.15;;;8.18;;
32393;SDS011;18853;45.426;9.206;2023-06-05T08:32:41;10.98;;;8.90;;
32393;SDS011;18853;45.426;9.206;2023-06-05T08:35:08;10.60;;;9.38;;
32393;SDS011;18853;45.426;9.206;2023-06-05T08:37:35;12.40;;;8.98;;
32393;SDS011;18853;45.426;9.206;2023-06-05T08:40:01;14.50;;;10.68;;
32393;SDS011;18853;45.426;9.206;2023-06-05T08:42:37;9.20;;;6.82;;
32393;SDS011;18853;45.426;9.206;2023-06-05T08:45:07;9.38;;;6.65;;
32393;SDS011;18853;45.426;9.206;2023-06-05T08:47:35;9.57;;;7.68;;
32393;SDS011;18853;45.426;9.206;2023-06-05T08:50:05;9.70;;;8.00;;
32393;SDS011;18853;45.426;9.206;2023-06-05T08:52:36;10.82;;;7.05;;
32393;SDS011;18853;45.426;9.206;2023-06-05T08:55:06;9.35;;;7.22;;
32393;SDS011;18853;45.426;9.206;2023-06-05T08:57:35;10.95;;;9.70;;
32393;SDS011;18853;45.426;9.206;2023-06-05T09:00:07;9.73;;;8.23;;
32393;SDS011;18853;45.426;9.206;2023-06-05T09:02:40;11.02;;;8.02;;
32393;SDS011;18853;45.426;9.206;2023-06-05T09:05:12;11.30;;;9.15;;
32393;SDS011;18853;45.426;9.206;2023-06-05T09:07:38;11.38;;;9.82;;
32393;SDS011;18853;45.426;9.206;2023-06-05T09:10:05;11.02;;;9.88;;
32393;SDS011;18853;45.426;9.206;2023-06-05T09:12:32;13.32;;;11.05;;
32393;SDS011;18853;45.426;9.206;2023-06-05T09:15:27;11.93;;;10.32;;
32393;SDS011;18853;45.426;9.206;2023-06-05T09:20:34;16.88;;;12.93;;
32393;SDS011;18853;45.426;9.206;2023-06-05T09:23:02;11.50;;;9.63;;
32393;SDS011;18853;45.426;9.206;2023-06-05T09:25:43;10.68;;;8.65;;
32393;SDS011;18853;45.426;9.206;2023-06-05T09:28:16;9.20;;;8.23;;
32393;SDS011;18853;45.426;9.206;2023-06-05T09:31:01;14.85;;;12.68;;
32393;SDS011;18853;45.426;9.206;2023-06-05T09:38:33;11.98;;;8.90;;
32393;SDS011;18853;45.426;9.206;2023-06-05T09:41:03;11.52;;;10.32;;
32393;SDS011;18853;45.426;9.206;2023-06-05T09:43:29;13.23;;;11.75;;
32393;SDS011;18853;45.426;9.206;2023-06-05T09:45:55;8.93;;;8.02;;
32393;SDS011;18853;45.426;9.206;2023-06-05T09:48:21;9.95;;;7.88;;
32393;SDS011;18853;45.426;9.206;2023-06-05T09:50:47;11.45;;;8.05;;
32393;SDS011;18853;45.426;9.206;2023-06-05T09:53:14;10.23;;;8.55;;
32393;SDS011;18853;45.426;9.206;2023-06-05T09:55:41;10.70;;;9.60;;
32393;SDS011;18853;45.426;9.206;2023-06-05T09:58:08;10.02;;;8.95;;
32393;SDS011;18853;45.426;9.206;2023-06-05T10:00:38;10.73;;;9.63;;
32393;SDS011;18853;45.426;9.206;2023-06-05T10:03:11;10.73;;;9.27;;
32393;SDS011;18853;45.426;9.206;2023-06-05T10:05:39;12.70;;;10.30;;
32393;SDS011;18853;45.426;9.206;2023-06-05T10:08:07;9.90;;;8.70;;
32393;SDS011;18853;45.426;9.206;2023-06-05T10:10:33;10.80;;;9.55;;
32393;SDS011;18853;45.426;9.206;2023-06-05T10:13:00;9.48;;;8.32;;
32393;SDS011;18853;45.426;9.206;2023-06-05T10:15:27;9.07;;;8.05;;
32393;SDS011;18853;45.426;9.206;2023-06-05T10:17:55;10.85;;;8.80;;
32393;SDS011;18853;45.426;9.206;2023-06-05T10:20:21;12.95;;;11.40;;
32393;SDS011;18853;45.426;9.206;2023-06-05T10:22:47;12.27;;;11.07;;
32393;SDS011;18853;45.426;9.206;2023-06-05T10:25:15;12.10;;;9.45;;
32393;SDS011;18853;45.426;9.206;2023-06-05T10:38:57;10.23;;;8.38;;
32393;SDS011;18853;45.426;9.206;2023-06-05T10:41:25;10.52;;;9.13;;
32393;SDS011;18853;45.426;9.206;2023-06-05T10:43:54;9.55;;;8.55;;
32393;SDS011;18853;45.426;9.206;2023-06-05T10:54:05;9.88;;;8.82;;
32393;SDS011;18853;45.426;9.206;2023-06-05T10:59:24;11.90;;;9.70;;
32393;SDS011;18853;45.426;9.206;2023-06-05T11:07:17;11.77;;;10.43;;
32393;SDS011;18853;45.426;9.206;2023-06-05T11:15:06;10.00;;;8.57;;
32393;SDS011;18853;45.426;9.206;2023-06-05T11:20:03;12.43;;;11.10;;
32393;SDS011;18853;45.426;9.206;2023-06-05T11:31:01;13.77;;;11.05;;
32393;SDS011;18853;45.426;9.206;2023-06-05T11:33:28;12.65;;;10.45;;
32393;SDS011;18853;45.426;9.206;2023-06-05T11:35:58;9.02;;;8.00;;
32393;SDS011;18853;45.426;9.206;2023-06-05T11:38:25;8.80;;;6.65;;
32393;SDS011;18853;45.426;9.206;2023-06-05T11:40:51;8.65;;;6.00;;
32393;SDS011;18853;45.426;9.206;2023-06-05T11:43:17;8.50;;;6.22;;
32393;SDS011;18853;45.426;9.206;2023-06-05T11:45:50;6.78;;;5.90;;
32393;SDS011;18853;45.426;9.206;2023-06-05T11:48:18;7.32;;;5.10;;
32393;SDS011;18853;45.426;9.206;2023-06-05T11:50:59;5.93;;;4.68;;
32393;SDS011;18853;45.426;9.206;2023-06-05T11:53:28;4.60;;;3.58;;
32393;SDS011;18853;45.426;9.206;2023-06-05T11:55:55;4.85;;;3.97;;
32393;SDS011;18853;45.426;9.206;2023-06-05T11:58:36;5.40;;;3.53;;
32393;SDS011;18853;45.426;9.206;2023-06-05T12:04:01;3.60;;;2.97;;
32393;SDS011;18853;45.426;9.206;2023-06-05T12:06:30;3.50;;;2.88;;
32393;SDS011;18853;45.426;9.206;2023-06-05T12:09:10;3.60;;;2.35;;
32393;SDS011;18853;45.426;9.206;2023-06-05T12:11:37;3.92;;;3.08;;
32393;SDS011;18853;45.426;9.206;2023-06-05T12:14:03;5.20;;;2.40;;
32393;SDS011;18853;45.426;9.206;2023-06-05T12:16:30;3.30;;;2.47;;
32393;SDS011;18853;45.426;9.206;2023-06-05T12:18:57;3.20;;;2.20;;
32393;SDS011;18853;45.426;9.206;2023-06-05T12:21:24;3.25;;;2.10;;
32393;SDS011;18853;45.426;9.206;2023-06-05T12:23:51;3.53;;;2.10;;
32393;SDS011;18853;45.426;9.206;2023-06-05T12:26:25;3.85;;;2.80;;
32393;SDS011;18853;45.426;9.206;2023-06-05T12:29:01;3.20;;;2.17;;
32393;SDS011;18853;45.426;9.206;2023-06-05T12:31:34;2.40;;;1.77;;
32393;SDS011;18853;45.426;9.206;2023-06-05T12:34:04;3.42;;;1.70;;
32393;SDS011;18853;45.426;9.206;2023-06-05T12:36:30;3.70;;;2.17;;
32393;SDS011;18853;45.426;9.206;2023-06-05T12:39:01;3.50;;;2.25;;
32393;SDS011;18853;45.426;9.206;2023-06-05T12:41:30;3.28;;;1.73;;
32393;SDS011;18853;45.426;9.206;2023-06-05T12:44:00;3.45;;;2.15;;
32393;SDS011;18853;45.426;9.206;2023-06-05T12:46:30;3.85;;;2.08;;
32393;SDS011;18853;45.426;9.206;2023-06-05T12:48:57;3.95;;;1.50;;
32393;SDS011;18853;45.426;9.206;2023-06-05T12:51:24;2.75;;;1.70;;
32393;SDS011;18853;45.426;9.206;2023-06-05T12:53:56;3.78;;;1.92;;
32393;SDS011;18853;45.426;9.206;2023-06-05T12:56:23;2.67;;;1.70;;
32393;SDS011;18853;45.426;9.206;2023-06-05T12:58:54;4.90;;;1.90;;
32393;SDS011;18853;45.426;9.206;2023-06-05T13:01:21;3.20;;;1.85;;
32393;SDS011;18853;45.426;9.206;2023-06-05T13:03:48;2.85;;;1.98;;
32393;SDS011;18853;45.426;9.206;2023-06-05T13:06:14;3.15;;;1.83;;
32393;SDS011;18853;45.426;9.206;2023-06-05T13:08:40;2.35;;;1.40;;
32393;SDS011;18853;45.426;9.206;2023-06-05T13:11:06;2.22;;;1.40;;
32393;SDS011;18853;45.426;9.206;2023-06-05T13:13:31;1.88;;;1.20;;
32393;SDS011;18853;45.426;9.206;2023-06-05T13:15:58;2.20;;;1.30;;
32393;SDS011;18853;45.426;9.206;2023-06-05T13:18:25;1.90;;;1.33;;
32393;SDS011;18853;45.426;9.206;2023-06-05T13:20:52;2.28;;;0.90;;
32393;SDS011;18853;45.426;9.206;2023-06-05T13:23:17;2.72;;;1.00;;
32393;SDS011;18853;45.426;9.206;2023-06-05T13:25:43;2.47;;;1.02;;
32393;SDS011;18853;45.426;9.206;2023-06-05T13:28:10;1.75;;;1.00;;
32393;SDS011;18853;45.426;9.206;2023-06-05T13:30:36;1.85;;;1.10;;
32393;SDS011;18853;45.426;9.206;2023-06-05T13:33:01;2.00;;;1.10;;
32393;SDS011;18853;45.426;9.206;2023-06-05T13:35:27;2.13;;;1.00;;
32393;SDS011;18853;45.426;9.206;2023-06-05T13:37:53;1.77;;;1.05;;
32393;SDS011;18853;45.426;9.206;2023-06-05T13:40:19;2.70;;;1.17;;
32393;SDS011;18853;45.426;9.206;2023-06-05T13:42:44;1.98;;;1.33;;
32393;SDS011;18853;45.426;9.206;2023-06-05T13:45:10;3.60;;;1.58;;
32393;SDS011;18853;45.426;9.206;2023-06-05T13:47:36;1.75;;;1.30;;
32393;SDS011;18853;45.426;9.206;2023-06-05T13:50:03;4.45;;;1.60;;
32393;SDS011;18853;45.426;9.206;2023-06-05T13:52:29;3.75;;;2.13;;
32393;SDS011;18853;45.426;9.206;2023-06-05T13:54:54;4.88;;;2.65;;
32393;SDS011;18853;45.426;9.206;2023-06-05T13:57:20;4.32;;;2.63;;
32393;SDS011;18853;45.426;9.206;2023-06-05T13:59:46;3.17;;;1.83;;
32393;SDS011;18853;45.426;9.206;2023-06-05T14:02:11;4.70;;;2.70;;
32393;SDS011;18853;45.426;9.206;2023-06-05T14:04:37;2.55;;;1.75;;
32393;SDS011;18853;45.426;9.206;2023-06-05T14:07:03;4.07;;;2.92;;
32393;SDS011;18853;45.426;9.206;2023-06-05T14:09:29;3.70;;;3.20;;
32393;SDS011;18853;45.426;9.206;2023-06-05T14:11:56;4.28;;;2.90;;
32393;SDS011;18853;45.426;9.206;2023-06-05T14:14:23;3.60;;;2.38;;
32393;SDS011;18853;45.426;9.206;2023-06-05T14:16:50;3.00;;;1.83;;
32393;SDS011;18853;45.426;9.206;2023-06-05T14:19:16;2.58;;;1.58;;
32393;SDS011;18853;45.426;9.206;2023-06-05T14:21:42;2.20;;;1.30;;
32393;SDS011;18853;45.426;9.206;2023-06-05T14:24:08;2.72;;;1.35;;
32393;SDS011;18853;45.426;9.206;2023-06-05T14:26:35;2.63;;;2.00;;
32393;SDS011;18853;45.426;9.206;2023-06-05T14:29:02;3.67;;;2.05;;
32393;SDS011;18853;45.426;9.206;2023-06-05T14:31:28;3.83;;;2.90;;
32393;SDS011;18853;45.426;9.206;2023-06-05T14:33:54;3.28;;;2.05;;
32393;SDS011;18853;45.426;9.206;2023-06-05T14:36:19;2.83;;;1.70;;
32393;SDS011;18853;45.426;9.206;2023-06-05T14:38:45;3.17;;;2.05;;
32393;SDS011;18853;45.426;9.206;2023-06-05T14:41:11;3.85;;;2.15;;
32393;SDS011;18853;45.426;9.206;2023-06-05T14:43:37;3.35;;;2.08;;
32393;SDS011;18853;45.426;9.206;2023-06-05T14:46:03;3.88;;;2.40;;
32393;SDS011;18853;45.426;9.206;2023-06-05T14:48:29;2.05;;;1.45;;
32393;SDS011;18853;45.426;9.206;2023-06-05T14:50:57;3.58;;;1.58;;
32393;SDS011;18853;45.426;9.206;2023-06-05T14:53:23;3.85;;;1.50;;
32393;SDS011;18853;45.426;9.206;2023-06-05T14:55:49;3.72;;;2.53;;
32393;SDS011;18853;45.426;9.206;2023-06-05T14:58:15;5.68;;;2.83;;
32393;SDS011;18853;45.426;9.206;2023-06-05T15:00:41;2.88;;;1.88;;
32393;SDS011;18853;45.426;9.206;2023-06-05T15:03:07;2.72;;;1.90;;
32393;SDS011;18853;45.426;9.206;2023-06-05T15:05:33;3.92;;;1.95;;
32393;SDS011;18853;45.426;9.206;2023-06-05T15:07:59;2.95;;;2.08;;
32393;SDS011;18853;45.426;9.206;2023-06-05T15:10:25;3.08;;;1.98;;
32393;SDS011;18853;45.426;9.206;2023-06-05T15:12:51;2.97;;;2.10;;
32393;SDS011;18853;45.426;9.206;2023-06-05T15:15:24;3.67;;;2.70;;
32393;SDS011;18853;45.426;9.206;2023-06-05T15:17:50;4.50;;;2.80;;
32393;SDS011;18853;45.426;9.206;2023-06-05T15:20:19;3.22;;;2.22;;
32393;SDS011;18853;45.426;9.206;2023-06-05T15:22:45;3.17;;;1.75;;
32393;SDS011;18853;45.426;9.206;2023-06-05T15:25:11;2.88;;;1.60;;
32393;SDS011;18853;45.426;9.206;2023-06-05T15:27:37;2.97;;;1.70;;
32393;SDS011;18853;45.426;9.206;2023-06-05T15:30:04;2.60;;;1.42;;
32393;SDS011;18853;45.426;9.206;2023-06-05T15:32:30;2.80;;;1.38;;
32393;SDS011;18853;45.426;9.206;2023-06-05T15:34:56;2.05;;;1.30;;
32393;SDS011;18853;45.426;9.206;2023-06-05T15:37:23;1.77;;;1.38;;
32393;SDS011;18853;45.426;9.206;2023-06-05T15:39:49;2.70;;;1.52;;
32393;SDS011;18853;45.426;9.206;2023-06-05T15:42:18;2.38;;;1.42;;
32393;SDS011;18853;45.426;9.206;2023-06-05T15:44:51;3.30;;;1.70;;